createdAt,value
2022-08-21T00:01:44.360Z,17.92
2022-08-21T00:04:14.474Z,17.67
2022-08-21T00:06:42.203Z,14.48
2022-08-21T00:09:10.867Z,16.48
2022-08-21T00:11:41.701Z,14.15
2022-08-21T00:14:10.865Z,20.88
2022-08-21T00:16:39.539Z,20.38
2022-08-21T00:19:07.899Z,14.18
2022-08-21T00:21:36.621Z,16.73
2022-08-21T00:24:04.500Z,13.40
2022-08-21T00:26:31.499Z,14.70
2022-08-21T00:28:59.003Z,11.63
2022-08-21T00:31:26.417Z,14.32
2022-08-21T00:33:57.967Z,16.80
2022-08-21T00:36:28.403Z,17.30
2022-08-21T00:38:55.525Z,18.70
2022-08-21T00:41:37.556Z,18.60
2022-08-21T00:44:10.105Z,15.60
2022-08-21T00:46:39.697Z,20.08
2022-08-21T00:49:09.114Z,19.38
2022-08-21T00:51:59.139Z,14.93
2022-08-21T00:54:30.643Z,14.82
2022-08-21T00:57:05.812Z,17.55
2022-08-21T00:59:38.343Z,20.73
2022-08-21T01:02:08.379Z,16.30
2022-08-21T01:04:35.983Z,17.30
2022-08-21T01:07:04.226Z,15.05
2022-08-21T01:09:31.258Z,15.23
2022-08-21T01:11:58.364Z,18.60
2022-08-21T01:14:25.633Z,17.42
2022-08-21T01:16:55.353Z,16.92
2022-08-21T01:19:23.732Z,17.20
2022-08-21T01:21:51.063Z,20.23
2022-08-21T01:24:18.187Z,14.77
2022-08-21T01:26:46.204Z,15.60
2022-08-21T01:29:23.734Z,17.55
2022-08-21T01:31:50.889Z,19.20
2022-08-21T01:34:19.592Z,19.45
2022-08-21T01:36:48.222Z,21.17
2022-08-21T01:39:16.154Z,19.65
2022-08-21T01:41:43.827Z,16.08
2022-08-21T01:44:10.797Z,25.10
2022-08-21T01:46:37.776Z,25.10
2022-08-21T01:49:06.670Z,23.55
2022-08-21T01:51:34.073Z,19.85
2022-08-21T01:54:01.270Z,22.98
2022-08-21T01:56:28.993Z,22.95
2022-08-21T01:58:56.661Z,23.67
2022-08-21T02:01:23.696Z,26.02
2022-08-21T02:03:50.656Z,25.52
2022-08-21T02:06:19.047Z,24.23
2022-08-21T02:08:47.392Z,27.42
2022-08-21T02:11:14.565Z,25.33
2022-08-21T02:13:41.910Z,27.88
2022-08-21T02:16:11.605Z,30.63
2022-08-21T02:18:40.578Z,36.50
2022-08-21T02:21:08.112Z,35.28
2022-08-21T02:23:35.579Z,26.98
2022-08-21T02:26:07.550Z,31.75
2022-08-21T02:28:36.180Z,31.88
2022-08-21T02:31:04.229Z,34.92
2022-08-21T02:33:31.572Z,35.33
2022-08-21T02:35:59.767Z,30.42
2022-08-21T02:38:30.977Z,33.80
2022-08-21T02:40:58.713Z,32.05
2022-08-21T02:43:28.970Z,36.28
2022-08-21T02:45:58.612Z,32.22
2022-08-21T02:48:32.123Z,34.20
2022-08-21T02:51:20.727Z,33.65
2022-08-21T02:53:51.607Z,34.33
2022-08-21T02:56:22.134Z,32.22
2022-08-21T02:58:53.015Z,32.63
2022-08-21T03:01:21.633Z,32.00
2022-08-21T03:03:52.377Z,31.90
2022-08-21T03:06:23.136Z,32.20
2022-08-21T03:08:50.534Z,32.35
2022-08-21T03:11:18.458Z,29.52
2022-08-21T03:13:45.526Z,29.67
2022-08-21T03:16:12.832Z,25.98
2022-08-21T03:18:40.181Z,25.27
2022-08-21T03:21:07.892Z,25.63
2022-08-21T03:23:34.920Z,26.55
2022-08-21T03:26:02.316Z,24.95
2022-08-21T03:28:29.467Z,21.23
2022-08-21T03:30:56.447Z,19.35
2022-08-21T03:33:24.106Z,18.10
2022-08-21T03:36:06.057Z,16.70
2022-08-21T03:38:35.416Z,17.17
2022-08-21T03:41:02.591Z,17.38
2022-08-21T03:43:30.920Z,16.48
2022-08-21T03:46:02.371Z,15.98
2022-08-21T03:48:29.960Z,16.17
2022-08-21T03:50:57.588Z,16.73
2022-08-21T03:53:25.551Z,17.55
2022-08-21T03:55:53.799Z,16.70
2022-08-21T03:58:25.188Z,14.32
2022-08-21T04:00:56.598Z,13.10
2022-08-21T04:03:24.579Z,14.50
2022-08-21T04:05:52.016Z,18.42
2022-08-21T04:08:20.237Z,20.48
2022-08-21T04:10:51.827Z,16.30
2022-08-21T04:13:19.048Z,15.35
2022-08-21T04:15:46.040Z,15.18
2022-08-21T04:18:14.112Z,13.07
2022-08-21T04:20:45.335Z,17.42
2022-08-21T04:23:24.575Z,16.90
2022-08-21T04:25:54.203Z,17.13
2022-08-21T04:28:23.372Z,20.73
2022-08-21T04:30:53.045Z,15.25
2022-08-21T04:33:21.996Z,16.10
2022-08-21T04:35:50.476Z,15.93
2022-08-21T04:38:17.798Z,14.00
2022-08-21T04:40:45.424Z,13.63
2022-08-21T04:43:12.887Z,13.50
2022-08-21T04:45:45.352Z,13.35
2022-08-21T04:48:16.428Z,13.13
2022-08-21T04:51:00.608Z,14.45
2022-08-21T04:53:41.068Z,12.80
2022-08-21T04:56:36.299Z,13.52
2022-08-21T04:59:11.760Z,14.82
2022-08-21T05:01:41.443Z,18.33
2022-08-21T05:04:13.710Z,13.43
2022-08-21T05:06:45.169Z,12.97
2022-08-21T05:09:16.388Z,13.98
2022-08-21T05:11:44.278Z,12.77
2022-08-21T05:14:13.146Z,12.18
2022-08-21T05:16:41.188Z,13.63
2022-08-21T05:19:09.720Z,14.75
2022-08-21T05:21:40.358Z,14.38
2022-08-21T05:24:07.610Z,13.00
2022-08-21T05:26:45.350Z,11.77
2022-08-21T05:29:17.010Z,14.73
2022-08-21T05:31:47.471Z,18.33
2022-08-21T05:34:19.680Z,15.75
2022-08-21T05:36:47.292Z,15.98
2022-08-21T05:39:15.657Z,15.48
2022-08-21T05:41:42.756Z,14.27
2022-08-21T05:44:10.355Z,14.77
2022-08-21T05:46:39.438Z,13.85
2022-08-21T05:49:06.572Z,17.60
2022-08-21T05:51:33.524Z,14.23
2022-08-21T05:54:00.565Z,16.42
2022-08-21T05:56:27.553Z,13.57
2022-08-21T05:58:54.600Z,15.38
2022-08-21T06:01:21.618Z,15.45
2022-08-21T06:03:48.698Z,15.98
2022-08-21T06:06:16.113Z,16.90
2022-08-21T06:08:43.785Z,17.67
2022-08-21T06:11:11.381Z,14.30
2022-08-21T06:13:40.059Z,16.85
2022-08-21T06:16:15.976Z,17.17
2022-08-21T06:18:45.840Z,18.33
2022-08-21T06:21:14.626Z,16.08
2022-08-21T06:23:43.145Z,16.17
2022-08-21T06:26:12.426Z,14.15
2022-08-21T06:28:40.398Z,14.57
2022-08-21T06:31:25.159Z,15.43
2022-08-21T06:33:52.895Z,15.93
2022-08-21T06:36:22.030Z,14.75
2022-08-21T06:38:50.922Z,13.02
2022-08-21T06:41:24.141Z,15.23
2022-08-21T06:43:55.134Z,12.50
2022-08-21T06:46:22.467Z,14.40
2022-08-21T06:48:49.480Z,11.95
2022-08-21T06:51:16.707Z,14.02
2022-08-21T06:53:43.708Z,10.90
2022-08-21T06:56:11.072Z,12.02
2022-08-21T06:58:38.138Z,11.02
2022-08-21T07:01:07.031Z,11.32
2022-08-21T07:03:41.407Z,12.13
2022-08-21T07:06:11.016Z,11.43
2022-08-21T07:08:39.084Z,10.65
2022-08-21T07:11:16.005Z,10.90
2022-08-21T07:13:45.014Z,10.07
2022-08-21T07:16:13.512Z,10.52
2022-08-21T07:18:40.898Z,10.65
2022-08-21T07:21:09.386Z,10.20
2022-08-21T07:23:42.918Z,8.75
2022-08-21T07:26:11.661Z,8.30
2022-08-21T07:28:38.891Z,8.40
2022-08-21T07:31:06.944Z,8.45
2022-08-21T07:33:36.212Z,9.48
2022-08-21T07:36:04.324Z,9.05
2022-08-21T07:38:31.344Z,9.57
2022-08-21T07:41:01.018Z,8.70
2022-08-21T07:43:29.982Z,9.57
2022-08-21T07:45:57.338Z,9.13
2022-08-21T07:48:25.078Z,10.45
2022-08-21T07:50:53.076Z,13.05
2022-08-21T07:53:20.025Z,10.82
2022-08-21T07:55:47.150Z,10.65
2022-08-21T07:58:17.274Z,10.65
2022-08-21T08:00:44.403Z,9.50
2022-08-21T08:03:11.385Z,11.02
2022-08-21T08:05:40.129Z,9.15
2022-08-21T08:08:07.258Z,7.60
2022-08-21T08:10:34.384Z,8.13
2022-08-21T08:13:02.490Z,6.63
2022-08-21T08:15:30.881Z,6.97
2022-08-21T08:18:00.325Z,8.77
2022-08-21T08:20:27.707Z,7.38
2022-08-21T08:22:56.341Z,7.47
2022-08-21T08:25:27.053Z,7.53
2022-08-21T08:27:54.261Z,6.88
2022-08-21T08:30:24.660Z,7.63
2022-08-21T08:32:52.416Z,8.23
2022-08-21T08:35:20.168Z,10.07
2022-08-21T08:37:52.568Z,10.88
2022-08-21T08:40:34.434Z,6.97
2022-08-21T08:43:01.926Z,8.95
2022-08-21T08:45:35.618Z,8.25
2022-08-21T08:48:14.180Z,10.73
2022-08-21T08:50:58.230Z,8.68
2022-08-21T08:53:34.581Z,9.27
2022-08-21T08:56:04.701Z,7.85
2022-08-21T08:58:41.811Z,9.60
2022-08-21T09:01:18.472Z,8.63
2022-08-21T09:03:50.991Z,6.93
2022-08-21T09:07:16.163Z,8.15
2022-08-21T09:10:13.747Z,7.47
2022-08-21T09:12:59.452Z,7.68
2022-08-21T09:15:59.512Z,8.30
2022-08-21T09:18:32.544Z,7.15
2022-08-21T09:24:29.077Z,7.78
2022-08-21T09:27:08.534Z,7.82
2022-08-21T09:29:48.696Z,6.47
2022-08-21T09:32:37.211Z,7.47
2022-08-21T09:35:23.830Z,7.47
2022-08-21T09:37:59.047Z,8.45
2022-08-21T09:40:46.266Z,6.38
2022-08-21T09:43:13.220Z,8.23
2022-08-21T09:45:43.109Z,7.32
2022-08-21T09:48:26.863Z,6.85
2022-08-21T09:51:17.619Z,6.80
2022-08-21T09:54:06.609Z,7.00
2022-08-21T09:57:21.640Z,8.60
2022-08-21T09:59:49.634Z,8.02
2022-08-21T10:02:35.378Z,7.22
2022-08-21T10:05:26.400Z,8.13
2022-08-21T10:07:53.895Z,10.13
2022-08-21T10:10:25.556Z,9.23
2022-08-21T10:13:26.492Z,8.57
2022-08-21T10:17:01.863Z,6.75
2022-08-21T10:19:54.000Z,7.88
2022-08-21T10:22:54.266Z,6.82
2022-08-21T10:26:13.811Z,7.78
2022-08-21T10:28:56.866Z,9.50
2022-08-21T10:32:25.924Z,8.47
2022-08-21T10:35:15.824Z,8.68
2022-08-21T10:38:55.393Z,9.82
2022-08-21T10:42:09.359Z,8.90
2022-08-21T10:45:03.353Z,7.82
2022-08-21T10:47:58.024Z,8.02
2022-08-21T10:50:35.060Z,7.68
2022-08-21T10:53:26.720Z,9.07
2022-08-21T10:56:16.050Z,9.32
2022-08-21T10:59:09.587Z,8.40
2022-08-21T11:04:49.212Z,9.35
2022-08-21T11:08:03.271Z,10.38
2022-08-21T11:10:51.199Z,10.25
2022-08-21T11:13:56.476Z,7.90
2022-08-21T11:16:47.574Z,6.53
2022-08-21T11:19:26.864Z,7.05
2022-08-21T11:22:29.048Z,8.55
2022-08-21T11:25:36.554Z,12.95
2022-08-21T11:28:24.989Z,9.57
2022-08-21T11:30:54.522Z,10.82
2022-08-21T11:33:30.224Z,8.32
2022-08-21T11:36:21.832Z,13.45
2022-08-21T11:39:22.373Z,10.05
2022-08-21T11:42:27.397Z,6.15
2022-08-21T11:45:32.097Z,10.07
2022-08-21T11:48:45.290Z,7.15
2022-08-21T11:51:21.827Z,7.53
2022-08-21T11:54:27.298Z,10.68
2022-08-21T11:57:14.407Z,8.45
2022-08-21T11:59:58.697Z,8.50
2022-08-21T12:02:34.638Z,8.25
2022-08-21T12:05:23.664Z,6.82
2022-08-21T12:08:29.194Z,8.63
2022-08-21T12:11:24.354Z,8.35
2022-08-21T12:14:06.683Z,6.32
2022-08-21T12:16:40.741Z,7.72
2022-08-21T12:19:28.340Z,6.93
2022-08-21T12:22:14.925Z,9.35
2022-08-21T12:24:50.652Z,7.00
2022-08-21T12:28:07.339Z,7.85
2022-08-21T12:30:44.306Z,5.68
2022-08-21T12:33:40.485Z,8.40
2022-08-21T12:36:24.033Z,10.52
2022-08-21T12:39:11.666Z,6.05
2022-08-21T12:42:01.815Z,6.30
2022-08-21T12:45:09.430Z,6.07
2022-08-21T12:47:51.658Z,6.45
2022-08-21T12:50:53.438Z,6.40
2022-08-21T12:53:58.838Z,5.40
2022-08-21T12:56:30.267Z,5.90
2022-08-21T12:59:06.314Z,5.90
2022-08-21T13:01:48.899Z,10.80
2022-08-21T13:04:35.010Z,5.88
2022-08-21T13:07:02.206Z,5.28
2022-08-21T13:09:32.196Z,5.32
2022-08-21T13:12:01.819Z,9.30
2022-08-21T13:14:46.262Z,6.15
2022-08-21T13:17:23.677Z,7.80
2022-08-21T13:20:09.398Z,5.20
2022-08-21T13:25:20.631Z,5.50
2022-08-21T13:28:08.107Z,6.68
2022-08-21T13:30:39.885Z,5.90
2022-08-21T13:33:12.830Z,4.93
2022-08-21T13:36:01.655Z,7.18
2022-08-21T13:38:36.196Z,5.47
2022-08-21T13:41:37.983Z,5.72
2022-08-21T13:44:20.007Z,6.15
2022-08-21T13:46:50.332Z,7.45
2022-08-21T13:49:24.314Z,4.72
2022-08-21T13:51:53.102Z,6.05
2022-08-21T13:54:39.388Z,5.65
2022-08-21T13:57:31.168Z,4.90
2022-08-21T14:00:31.700Z,5.00
2022-08-21T14:03:10.754Z,6.22
2022-08-21T14:05:47.409Z,7.93
2022-08-21T14:08:38.423Z,5.93
2022-08-21T14:11:10.716Z,4.80
2022-08-21T14:14:04.878Z,5.60
2022-08-21T14:16:53.970Z,5.00
2022-08-21T14:19:48.554Z,7.53
2022-08-21T14:22:40.120Z,5.93
2022-08-21T14:25:19.117Z,9.88
2022-08-21T14:28:00.020Z,8.18
2022-08-21T14:30:37.768Z,6.75
2022-08-21T14:33:11.536Z,6.28
2022-08-21T14:35:40.172Z,6.53
2022-08-21T14:38:23.259Z,5.32
2022-08-21T14:40:55.406Z,6.05
2022-08-21T14:43:22.735Z,6.20
2022-08-21T14:45:49.838Z,7.38
2022-08-21T14:48:16.803Z,7.43
2022-08-21T14:50:43.908Z,5.75
2022-08-21T14:53:11.569Z,7.90
2022-08-21T14:55:59.706Z,7.45
2022-08-21T14:58:27.221Z,7.18
2022-08-21T15:00:57.394Z,8.57
2022-08-21T15:03:25.843Z,7.00
2022-08-21T15:05:53.007Z,6.72
2022-08-21T15:08:20.150Z,9.93
2022-08-21T15:11:10.539Z,8.90
2022-08-21T15:13:35.464Z,7.13
2022-08-21T15:16:03.132Z,5.43
2022-08-21T15:18:31.774Z,5.55
2022-08-21T15:20:59.177Z,11.27
2022-08-21T15:23:26.165Z,6.80
2022-08-21T15:25:54.845Z,5.65
2022-08-21T15:28:23.635Z,9.43
2022-08-21T15:30:51.675Z,6.93
2022-08-21T15:33:19.987Z,9.30
2022-08-21T15:35:47.334Z,7.30
2022-08-21T15:38:15.971Z,8.70
2022-08-21T15:40:51.761Z,11.30
2022-08-21T15:43:31.619Z,7.55
2022-08-21T15:46:02.570Z,10.07
2022-08-21T15:48:31.544Z,8.35
2022-08-21T15:50:58.702Z,9.25
2022-08-21T15:53:26.245Z,9.88
2022-08-21T15:55:54.512Z,9.48
2022-08-21T15:58:23.604Z,7.45
2022-08-21T16:00:50.901Z,8.40
2022-08-21T16:03:22.556Z,9.70
2022-08-21T16:05:53.191Z,9.23
2022-08-21T16:08:21.681Z,13.15
2022-08-21T16:10:49.953Z,8.38
2022-08-21T16:13:39.974Z,8.45
2022-08-21T16:16:08.315Z,9.07
2022-08-21T16:18:35.490Z,8.10
2022-08-21T16:21:02.731Z,8.13
2022-08-21T16:23:29.774Z,10.55
2022-08-21T16:26:01.648Z,9.02
2022-08-21T16:28:30.630Z,9.88
2022-08-21T16:30:58.656Z,10.18
2022-08-21T16:33:37.384Z,8.57
2022-08-21T16:36:07.274Z,11.88
2022-08-21T16:38:38.265Z,7.93
2022-08-21T16:41:19.754Z,8.20
2022-08-21T16:43:50.265Z,7.50
2022-08-21T16:46:19.455Z,10.70
2022-08-21T16:48:50.652Z,11.02
2022-08-21T16:51:21.312Z,8.25
2022-08-21T16:53:48.656Z,12.07
2022-08-21T16:56:17.397Z,7.22
2022-08-21T17:11:54.463Z,9.00
2022-08-21T17:14:23.972Z,7.47
2022-08-21T17:16:54.796Z,8.93
2022-08-21T17:19:23.016Z,7.22
2022-08-21T17:21:50.862Z,10.48
2022-08-21T17:24:18.281Z,7.63
2022-08-21T17:26:46.506Z,10.63
2022-08-21T17:29:16.087Z,8.82
2022-08-21T17:31:44.647Z,10.65
2022-08-21T17:34:12.879Z,10.45
2022-08-21T17:36:39.977Z,9.70
2022-08-21T17:39:09.897Z,10.00
2022-08-21T17:41:37.274Z,12.68
2022-08-21T17:44:09.460Z,17.02
2022-08-21T17:46:38.974Z,13.17
2022-08-21T17:49:09.318Z,12.50
2022-08-21T17:51:36.457Z,9.60
2022-08-21T17:54:03.975Z,12.75
2022-08-21T17:56:37.026Z,9.73
2022-08-21T18:01:42.612Z,8.73
2022-08-21T18:04:12.083Z,8.77
2022-08-21T18:06:40.787Z,8.82
2022-08-21T18:09:08.939Z,8.20
2022-08-21T18:11:37.650Z,8.70
2022-08-21T18:14:07.857Z,12.23
2022-08-21T18:16:37.734Z,9.00
2022-08-21T18:19:10.204Z,7.65
2022-08-21T18:21:37.579Z,10.13
2022-08-21T18:24:05.294Z,13.25
2022-08-21T18:26:39.329Z,11.35
2022-08-21T18:29:11.316Z,8.45
2022-08-21T18:31:41.323Z,11.43
2022-08-21T18:34:41.292Z,8.45
2022-08-21T18:37:09.706Z,11.13
2022-08-21T18:39:40.078Z,9.13
2022-08-21T18:42:15.425Z,8.10
2022-08-21T18:44:48.340Z,8.40
2022-08-21T18:47:39.757Z,11.32
2022-08-21T18:50:10.692Z,8.30
2022-08-21T18:52:51.866Z,9.55
2022-08-21T18:55:23.081Z,8.70
2022-08-21T18:57:54.728Z,7.80
2022-08-21T19:00:30.453Z,6.63
2022-08-21T19:02:58.287Z,9.93
2022-08-21T19:05:26.964Z,9.63
2022-08-21T19:07:56.711Z,10.00
2022-08-21T19:10:28.478Z,7.32
2022-08-21T19:13:00.667Z,9.27
2022-08-21T19:15:29.773Z,10.98
2022-08-21T19:17:59.013Z,9.80
2022-08-21T19:20:38.267Z,12.32
2022-08-21T19:23:11.952Z,10.25
2022-08-21T19:25:43.615Z,12.13
2022-08-21T19:28:22.110Z,10.45
2022-08-21T19:31:01.866Z,8.98
2022-08-21T19:33:47.205Z,10.98
2022-08-21T19:36:20.200Z,8.88
2022-08-21T19:38:48.524Z,11.43
2022-08-21T19:41:19.456Z,7.85
2022-08-21T19:43:58.367Z,8.65
2022-08-21T19:46:36.980Z,9.98
2022-08-21T19:49:11.809Z,9.45
2022-08-21T19:51:41.485Z,9.73
2022-08-21T19:54:33.005Z,7.35
2022-08-21T19:57:09.094Z,8.32
2022-08-21T19:59:38.756Z,9.20
2022-08-21T20:02:09.093Z,7.20
2022-08-21T20:04:37.054Z,9.30
2022-08-21T20:07:08.130Z,6.40
2022-08-21T20:09:52.578Z,9.75
2022-08-21T20:12:19.952Z,6.80
2022-08-21T20:14:49.779Z,8.75
2022-08-21T20:17:20.842Z,6.97
2022-08-21T20:19:53.923Z,13.00
2022-08-21T20:22:24.159Z,9.25
2022-08-21T20:24:51.634Z,7.55
2022-08-21T20:27:27.676Z,7.22
2022-08-21T20:29:55.773Z,7.15
2022-08-21T20:32:24.358Z,6.68
2022-08-21T20:34:53.818Z,8.45
2022-08-21T20:40:13.070Z,8.13
2022-08-21T20:42:45.380Z,5.32
2022-08-21T20:45:19.355Z,6.30
2022-08-21T20:47:48.151Z,5.75
2022-08-21T20:50:27.352Z,6.27
2022-08-21T20:53:43.657Z,6.43
2022-08-21T20:56:24.984Z,5.15
2022-08-21T20:59:34.944Z,6.05
2022-08-21T21:02:16.659Z,6.43
2022-08-21T21:04:57.812Z,7.80
2022-08-21T21:07:51.816Z,8.48
2022-08-21T21:10:36.802Z,4.88
2022-08-21T21:13:18.032Z,5.13
2022-08-21T21:15:51.423Z,5.25
2022-08-21T21:18:53.837Z,4.78
2022-08-21T21:22:12.625Z,8.95
2022-08-21T21:24:56.444Z,5.18
2022-08-21T21:27:37.564Z,8.10
2022-08-21T21:30:16.582Z,4.88
2022-08-21T21:32:48.784Z,10.80
2022-08-21T21:35:22.348Z,7.82
2022-08-21T21:38:14.648Z,6.38
2022-08-21T21:41:19.914Z,6.18
2022-08-21T21:44:15.700Z,4.20
2022-08-21T21:47:24.028Z,9.10
2022-08-21T21:50:06.585Z,5.53
2022-08-21T21:53:15.307Z,5.63
2022-08-21T21:55:54.246Z,4.95
2022-08-21T21:58:51.624Z,5.05
2022-08-21T22:02:09.420Z,8.15
2022-08-21T22:04:51.255Z,5.78
2022-08-21T22:07:37.740Z,5.97
2022-08-21T22:10:43.210Z,5.22
2022-08-21T22:16:15.408Z,5.63
2022-08-21T22:18:54.742Z,8.00
2022-08-21T22:21:37.307Z,6.97
2022-08-21T22:24:23.214Z,6.75
2022-08-21T22:26:59.988Z,8.05
2022-08-21T22:29:54.653Z,9.65
2022-08-21T22:32:37.592Z,7.28
2022-08-21T22:35:21.684Z,6.93
2022-08-21T22:37:59.634Z,5.13
2022-08-21T22:40:32.135Z,6.18
2022-08-21T22:43:07.309Z,8.70
2022-08-21T22:46:08.958Z,7.57
2022-08-21T22:48:53.017Z,11.23
2022-08-21T22:51:40.005Z,6.40
2022-08-21T22:54:21.809Z,9.70
2022-08-21T22:57:07.193Z,8.15
2022-08-21T22:59:55.929Z,12.18
2022-08-21T23:02:43.121Z,8.63
2022-08-21T23:05:33.549Z,7.32
2022-08-21T23:08:24.017Z,4.60
2022-08-21T23:11:24.331Z,8.00
2022-08-21T23:13:54.020Z,7.85
2022-08-21T23:16:47.183Z,14.05
2022-08-21T23:19:28.777Z,10.13
2022-08-21T23:22:10.152Z,8.02
2022-08-21T23:25:12.571Z,9.20
2022-08-21T23:28:23.857Z,6.75
2022-08-21T23:31:32.336Z,6.97
2022-08-21T23:34:11.464Z,6.28
2022-08-21T23:40:19.263Z,8.10
2022-08-21T23:43:14.138Z,5.22
2022-08-21T23:46:02.148Z,8.18
2022-08-21T23:48:55.051Z,6.93
2022-08-21T23:51:57.035Z,7.82
2022-08-21T23:54:42.686Z,10.27
2022-08-21T23:57:38.392Z,8.98
